createdAt,value
2018-06-21T00:01:06.715Z,100268.55
2018-06-21T00:03:36.108Z,100273.96
2018-06-21T00:06:05.736Z,100275.81
2018-06-21T00:08:35.319Z,100266.85
2018-06-21T00:11:04.726Z,100271.41
2018-06-21T00:13:35.263Z,100270.05
2018-06-21T00:16:04.970Z,100269.20
2018-06-21T00:18:34.590Z,100254.33
2018-06-21T00:21:05.107Z,100258.06
2018-06-21T00:23:35.133Z,100256.36
2018-06-21T00:26:04.841Z,100251.45
2018-06-21T00:28:34.347Z,100250.63
2018-06-21T00:31:04.369Z,100236.77
2018-06-21T00:33:34.484Z,100238.61
2018-06-21T00:36:04.193Z,100234.56
2018-06-21T00:38:33.800Z,100227.80
2018-06-21T00:41:03.409Z,100226.63
2018-06-21T00:43:33.018Z,100228.48
2018-06-21T00:46:02.527Z,100234.06
2018-06-21T00:48:32.857Z,100230.52
2018-06-21T00:51:02.455Z,100234.56
2018-06-21T00:53:32.580Z,100227.95
2018-06-21T00:56:13.041Z,100211.41
2018-06-21T00:58:43.353Z,100211.06
2018-06-21T01:01:13.897Z,100206.66
2018-06-21T01:03:43.287Z,100197.19
2018-06-21T01:06:13.933Z,100182.69
2018-06-21T01:08:43.840Z,100191.11
2018-06-21T01:11:14.171Z,100188.09
2018-06-21T01:13:43.576Z,100190.44
2018-06-21T01:16:13.803Z,100184.19
2018-06-21T01:18:43.598Z,100183.86
2018-06-21T01:21:14.034Z,100187.92
2018-06-21T01:23:44.880Z,100184.83
2018-06-21T01:26:15.814Z,100175.55
2018-06-21T01:28:46.139Z,100177.72
2018-06-21T01:31:16.256Z,100172.85
2018-06-21T01:33:46.588Z,100166.73
2018-06-21T01:36:16.905Z,100165.73
2018-06-21T01:38:47.023Z,100157.28
2018-06-21T01:41:17.758Z,100157.28
2018-06-21T01:43:47.579Z,100159.98
2018-06-21T01:46:17.606Z,100154.76
2018-06-21T01:48:47.713Z,100153.41
2018-06-21T01:51:17.636Z,100153.91
2018-06-21T01:53:47.438Z,100141.39
2018-06-21T01:56:17.872Z,100145.80
2018-06-21T01:58:47.995Z,100141.39
2018-06-21T02:01:17.801Z,100140.39
2018-06-21T02:03:48.029Z,100133.28
2018-06-21T02:06:18.351Z,100134.63
2018-06-21T02:08:48.366Z,100137.87
2018-06-21T02:11:18.898Z,100140.22
2018-06-21T02:13:49.021Z,100134.81
2018-06-21T02:16:18.835Z,100131.26
2018-06-21T02:18:48.852Z,100129.59
2018-06-21T02:21:18.981Z,100126.89
2018-06-21T02:23:48.987Z,100122.83
2018-06-21T02:26:18.904Z,100117.42
2018-06-21T02:28:48.740Z,100111.67
2018-06-21T02:31:18.939Z,100117.08
2018-06-21T02:33:48.634Z,100104.56
2018-06-21T02:36:18.770Z,100106.77
2018-06-21T02:38:48.683Z,100112.17
2018-06-21T02:41:18.395Z,100098.84
2018-06-21T02:43:48.163Z,100096.98
2018-06-21T02:46:18.326Z,100102.55
2018-06-21T02:48:48.345Z,100106.95
2018-06-21T02:51:18.471Z,100102.55
2018-06-21T02:53:48.385Z,100098.98
2018-06-21T02:56:18.402Z,100102.22
2018-06-21T02:58:48.419Z,100101.87
2018-06-21T03:01:18.726Z,100101.87
2018-06-21T03:03:48.874Z,100096.47
2018-06-21T03:06:18.787Z,100095.62
2018-06-21T03:08:48.700Z,100085.31
2018-06-21T03:11:18.594Z,100080.94
2018-06-21T03:13:48.521Z,100073.83
2018-06-21T03:16:18.342Z,100072.48
2018-06-21T03:18:47.840Z,100063.52
2018-06-21T03:21:17.551Z,100059.97
2018-06-21T03:23:47.573Z,100052.20
2018-06-21T03:26:17.591Z,100042.08
2018-06-21T03:28:47.610Z,100035.83
2018-06-21T03:31:17.652Z,100035.83
2018-06-21T03:33:47.742Z,100033.30
2018-06-21T03:36:17.456Z,100023.00
2018-06-21T03:38:47.784Z,100025.85
2018-06-21T03:41:17.796Z,100033.45
2018-06-21T03:43:47.917Z,100029.91
2018-06-21T03:46:18.051Z,100022.48
2018-06-21T03:48:48.058Z,100034.99
2018-06-21T03:51:17.667Z,100039.36
2018-06-21T03:53:47.379Z,100038.38
2018-06-21T03:56:16.982Z,100033.79
2018-06-21T03:58:46.590Z,100024.33
2018-06-21T04:01:16.009Z,100016.77
2018-06-21T04:03:45.604Z,100014.88
2018-06-21T04:06:15.521Z,100001.90
2018-06-21T04:08:45.336Z,99991.59
2018-06-21T04:11:15.147Z,99989.74
2018-06-21T04:13:45.166Z,99998.34
2018-06-21T04:16:15.380Z,99993.80
2018-06-21T04:18:45.300Z,99994.30
2018-06-21T04:21:14.907Z,99990.74
2018-06-21T04:23:44.316Z,99983.98
2018-06-21T04:26:14.052Z,99965.58
2018-06-21T04:28:44.144Z,99959.67
2018-06-21T04:31:13.748Z,99947.52
2018-06-21T04:33:43.462Z,99946.16
2018-06-21T04:36:13.377Z,99938.05
2018-06-21T04:38:43.293Z,99938.91
2018-06-21T04:41:13.100Z,99937.05
2018-06-21T04:43:43.427Z,99941.26
2018-06-21T04:46:13.038Z,99945.31
2018-06-21T04:48:42.646Z,99947.52
2018-06-21T04:51:12.971Z,99936.70
2018-06-21T04:53:42.581Z,99940.25
2018-06-21T04:56:12.811Z,99938.55
2018-06-21T04:58:42.311Z,99926.40
2018-06-21T05:01:11.919Z,99920.14
2018-06-21T05:03:41.534Z,99929.95
2018-06-21T05:06:11.649Z,99925.89
2018-06-21T05:08:41.353Z,99929.95
2018-06-21T05:11:11.483Z,99923.20
2018-06-21T05:13:41.290Z,99934.00
2018-06-21T05:16:11.308Z,99918.80
2018-06-21T05:18:41.430Z,99916.94
2018-06-21T05:21:12.079Z,99912.04
2018-06-21T05:23:41.977Z,99907.98
2018-06-21T05:26:15.174Z,99913.39
2018-06-21T05:28:45.183Z,99919.83
2018-06-21T05:31:15.304Z,99917.44
2018-06-21T05:33:45.325Z,99912.57
2018-06-21T05:36:15.342Z,99905.97
2018-06-21T05:38:45.359Z,99904.63
2018-06-21T05:41:15.376Z,99896.70
2018-06-21T05:43:45.297Z,99895.84
2018-06-21T05:46:14.801Z,99896.35
2018-06-21T05:48:44.402Z,99891.95
2018-06-21T05:51:13.928Z,99893.30
2018-06-21T05:53:44.239Z,99893.48
2018-06-21T05:56:13.747Z,99889.44
2018-06-21T05:58:43.351Z,99888.59
2018-06-21T06:01:13.368Z,99881.52
2018-06-21T06:03:42.956Z,99879.31
2018-06-21T06:06:12.589Z,99880.67
2018-06-21T06:08:42.084Z,99873.06
2018-06-21T06:11:11.600Z,99867.84
2018-06-21T06:13:41.207Z,99866.14
2018-06-21T06:16:10.473Z,99862.59
2018-06-21T06:18:40.017Z,99863.95
2018-06-21T06:21:09.618Z,99859.58
2018-06-21T06:23:39.108Z,99848.24
2018-06-21T06:26:08.639Z,99836.27
2018-06-21T06:28:38.355Z,99835.43
2018-06-21T06:31:07.845Z,99830.84
2018-06-21T06:33:37.037Z,99836.09
2018-06-21T06:36:06.348Z,99836.59
2018-06-21T06:38:35.653Z,99827.64
2018-06-21T06:41:05.263Z,99830.34
2018-06-21T06:43:34.869Z,99835.06
2018-06-21T06:46:04.301Z,99835.91
2018-06-21T06:48:33.982Z,99836.75
2018-06-21T06:51:03.795Z,99837.61
2018-06-21T06:53:32.987Z,99832.70
2018-06-21T06:56:02.185Z,99834.91
2018-06-21T06:58:31.001Z,99831.17
2018-06-21T07:01:00.119Z,99825.45
2018-06-21T07:03:29.076Z,99819.01
2018-06-21T07:05:58.077Z,99796.05
2018-06-21T07:08:27.113Z,99784.73
2018-06-21T07:10:56.024Z,99777.14
2018-06-21T07:13:24.874Z,99776.32
2018-06-21T07:15:53.882Z,99782.38
2018-06-21T07:18:23.489Z,99786.94
2018-06-21T07:20:52.508Z,99769.88
2018-06-21T07:23:21.561Z,99765.83
2018-06-21T07:25:50.429Z,99758.58
2018-06-21T07:28:19.304Z,99761.62
2018-06-21T07:30:48.399Z,99760.42
2018-06-21T07:33:17.568Z,99765.67
2018-06-21T07:35:46.597Z,99767.53
2018-06-21T07:38:15.476Z,99762.63
2018-06-21T07:40:44.594Z,99755.02
2018-06-21T07:43:13.686Z,99755.02
2018-06-21T07:45:42.815Z,99755.53
2018-06-21T07:48:11.684Z,99756.87
2018-06-21T07:50:40.562Z,99754.36
2018-06-21T07:53:09.731Z,99748.95
2018-06-21T07:55:38.806Z,99755.72
2018-06-21T07:58:07.899Z,99750.31
2018-06-21T08:00:36.890Z,99748.61
2018-06-21T08:03:05.877Z,99751.66
2018-06-21T08:05:34.787Z,99757.56
2018-06-21T08:08:03.824Z,99759.11
2018-06-21T08:10:32.874Z,99762.31
2018-06-21T08:13:01.756Z,99764.16
2018-06-21T08:15:31.453Z,99761.65
2018-06-21T08:18:00.414Z,99757.91
2018-06-21T08:20:29.474Z,99752.51
2018-06-21T08:22:58.921Z,99747.30
2018-06-21T08:25:27.859Z,99749.15
2018-06-21T08:27:56.762Z,99741.55
2018-06-21T08:30:25.931Z,99742.08
2018-06-21T08:32:55.026Z,99737.69
2018-06-21T08:35:24.043Z,99738.53
2018-06-21T08:37:53.043Z,99738.53
2018-06-21T08:40:21.986Z,99734.13
2018-06-21T08:42:51.077Z,99740.38
2018-06-21T08:45:20.134Z,99733.13
2018-06-21T08:47:49.883Z,99728.23
2018-06-21T08:50:18.980Z,99728.73
2018-06-21T08:52:47.836Z,99723.67
2018-06-21T08:55:16.758Z,99719.28
2018-06-21T08:57:45.629Z,99726.03
2018-06-21T09:00:15.120Z,99712.02
2018-06-21T09:02:44.173Z,99696.66
2018-06-21T09:05:13.228Z,99688.56
2018-06-21T09:07:42.254Z,99689.41
2018-06-21T09:10:11.342Z,99684.31
2018-06-21T09:12:40.238Z,99694.81
2018-06-21T09:15:10.509Z,99698.67
2018-06-21T09:17:39.443Z,99691.92
2018-06-21T09:20:08.507Z,99690.22
2018-06-21T09:22:37.321Z,99685.36
2018-06-21T09:25:06.299Z,99669.97
2018-06-21T09:27:35.272Z,99672.16
2018-06-21T09:30:04.230Z,99667.61
2018-06-21T09:32:33.524Z,99670.31
2018-06-21T09:35:02.490Z,99652.95
2018-06-21T09:37:36.790Z,99651.91
2018-06-21T09:40:11.083Z,99650.05
2018-06-21T09:42:45.375Z,99645.16
2018-06-21T09:45:18.561Z,99646.84
2018-06-21T09:47:52.676Z,99643.30
2018-06-21T09:50:21.653Z,99625.24
2018-06-21T09:52:50.608Z,99631.99
2018-06-21T09:55:19.559Z,99640.95
2018-06-21T09:57:48.632Z,99641.95
2018-06-21T10:00:22.593Z,99638.56
2018-06-21T10:02:51.629Z,99643.45
2018-06-21T10:05:20.533Z,99636.89
2018-06-21T10:07:49.392Z,99642.61
2018-06-21T10:10:18.710Z,99644.45
2018-06-21T10:12:47.778Z,99640.75
2018-06-21T10:15:17.606Z,99637.20
2018-06-21T10:17:46.798Z,99641.09
2018-06-21T10:20:15.741Z,99632.15
2018-06-21T10:22:44.678Z,99630.30
2018-06-21T10:25:14.509Z,99611.89
2018-06-21T10:27:43.431Z,99610.54
2018-06-21T10:30:12.507Z,99607.64
2018-06-21T10:32:41.460Z,99608.15
2018-06-21T10:35:10.301Z,99605.14
2018-06-21T10:37:39.390Z,99593.98
2018-06-21T10:40:08.470Z,99587.23
2018-06-21T10:42:38.279Z,99576.12
2018-06-21T10:45:07.748Z,99562.92
2018-06-21T10:47:36.881Z,99555.86
2018-06-21T10:50:06.171Z,99560.22
2018-06-21T10:52:35.114Z,99544.71
2018-06-21T10:55:04.206Z,99534.25
2018-06-21T10:57:33.097Z,99517.70
2018-06-21T11:00:02.089Z,99507.74
2018-06-21T11:02:31.038Z,99506.39
2018-06-21T11:05:00.067Z,99506.39
2018-06-21T11:07:29.054Z,99516.70
2018-06-21T11:09:57.975Z,99521.91
2018-06-21T11:12:27.078Z,99532.20
2018-06-21T11:14:56.116Z,99529.66
2018-06-21T11:17:25.254Z,99528.16
2018-06-21T11:19:54.158Z,99526.80
2018-06-21T11:22:23.042Z,99527.65
2018-06-21T11:24:52.554Z,99532.52
2018-06-21T11:27:21.433Z,99537.61
2018-06-21T11:29:50.349Z,99550.07
2018-06-21T11:32:19.638Z,99550.07
2018-06-21T11:34:48.497Z,99548.72
2018-06-21T11:37:17.417Z,99550.27
2018-06-21T11:39:46.302Z,99545.70
2018-06-21T11:42:15.258Z,99556.52
2018-06-21T11:44:44.166Z,99552.77
2018-06-21T11:47:13.014Z,99557.86
2018-06-21T11:49:42.153Z,99551.61
2018-06-21T11:52:11.275Z,99541.81
2018-06-21T11:54:40.341Z,99540.81
2018-06-21T11:57:09.222Z,99538.30
2018-06-21T11:59:38.216Z,99537.45
2018-06-21T12:02:07.213Z,99535.26
2018-06-21T12:04:36.467Z,99529.35
2018-06-21T12:07:05.566Z,99531.20
2018-06-21T12:09:34.610Z,99546.56
2018-06-21T12:12:03.522Z,99545.72
2018-06-21T12:14:32.632Z,99541.67
2018-06-21T12:17:01.716Z,99542.20
2018-06-21T12:19:30.732Z,99541.36
2018-06-21T12:21:59.529Z,99532.91
2018-06-21T12:24:28.519Z,99527.52
2018-06-21T12:26:57.871Z,99527.52
2018-06-21T12:29:26.873Z,99520.45
2018-06-21T12:31:56.542Z,99522.61
2018-06-21T12:34:25.965Z,99515.05
2018-06-21T12:36:55.105Z,99510.15
2018-06-21T12:39:24.124Z,99494.11
2018-06-21T12:41:53.982Z,99488.20
2018-06-21T12:44:23.031Z,99485.19
2018-06-21T12:46:52.088Z,99489.23
2018-06-21T12:49:21.035Z,99488.90
2018-06-21T12:51:50.116Z,99483.50
2018-06-21T12:54:19.016Z,99478.60
2018-06-21T12:56:48.171Z,99475.05
2018-06-21T12:59:17.153Z,99476.41
2018-06-21T13:01:46.188Z,99472.86
2018-06-21T13:04:15.028Z,99477.75
2018-06-21T13:06:44.142Z,99485.55
2018-06-21T13:09:23.925Z,99479.80
2018-06-21T13:12:36.518Z,99486.36
2018-06-21T13:15:06.035Z,99485.05
2018-06-21T13:17:35.003Z,99476.61
2018-06-21T13:20:04.884Z,99473.09
2018-06-21T13:22:33.633Z,99479.00
2018-06-21T13:25:03.173Z,99461.45
2018-06-21T13:27:32.244Z,99453.85
2018-06-21T13:30:01.150Z,99458.25
2018-06-21T13:32:30.230Z,99466.34
2018-06-21T13:34:59.133Z,99463.30
2018-06-21T13:37:28.118Z,99461.95
2018-06-21T13:39:56.974Z,99458.41
2018-06-21T13:42:25.914Z,99457.91
2018-06-21T13:44:54.954Z,99459.45
2018-06-21T13:47:24.002Z,99473.45
2018-06-21T13:49:53.104Z,99489.15
2018-06-21T13:52:22.070Z,99479.36
2018-06-21T13:54:50.986Z,99464.50
2018-06-21T13:57:20.097Z,99455.55
2018-06-21T13:59:49.413Z,99452.86
2018-06-21T14:02:18.570Z,99449.31
2018-06-21T14:04:47.637Z,99429.59
2018-06-21T14:07:16.855Z,99423.34
2018-06-21T14:09:46.099Z,99413.90
2018-06-21T14:12:15.178Z,99400.56
2018-06-21T14:14:44.327Z,99391.96
2018-06-21T14:17:13.381Z,99391.96
2018-06-21T14:19:42.650Z,99382.20
2018-06-21T14:22:11.856Z,99394.35
2018-06-21T14:24:40.786Z,99397.69
2018-06-21T14:27:09.849Z,99399.37
2018-06-21T14:29:38.940Z,99393.13
2018-06-21T14:32:08.230Z,99409.33
2018-06-21T14:34:37.370Z,99411.19
2018-06-21T14:37:06.683Z,99401.93
2018-06-21T14:39:35.818Z,99390.63
2018-06-21T14:42:04.851Z,99395.17
2018-06-21T14:44:33.882Z,99392.98
2018-06-21T14:47:03.214Z,99392.14
2018-06-21T14:49:32.356Z,99393.48
2018-06-21T14:52:01.442Z,99384.55
2018-06-21T14:54:30.694Z,99376.44
2018-06-21T14:56:59.827Z,99388.59
2018-06-21T14:59:29.031Z,99391.29
2018-06-21T15:01:58.355Z,99408.53
2018-06-21T15:04:27.492Z,99410.19
2018-06-21T15:06:56.503Z,99416.63
2018-06-21T15:09:25.407Z,99410.73
2018-06-21T15:11:55.375Z,99397.73
2018-06-21T15:14:24.644Z,99389.63
2018-06-21T15:23:41.507Z,99395.45
2018-06-21T15:26:10.875Z,99386.05
2018-06-21T15:28:40.239Z,99388.21
2018-06-21T15:31:09.338Z,99391.25
2018-06-21T15:33:38.181Z,99385.34
2018-06-21T15:36:07.394Z,99371.35
2018-06-21T15:38:36.742Z,99365.42
2018-06-21T15:41:05.797Z,99363.25
2018-06-21T15:43:34.889Z,99352.27
2018-06-21T15:46:03.991Z,99348.22
2018-06-21T15:48:33.074Z,99345.86
2018-06-21T15:51:02.713Z,99339.11
2018-06-21T15:53:31.715Z,99343.81
2018-06-21T15:56:00.723Z,99332.16
2018-06-21T15:58:29.560Z,99339.25
2018-06-21T16:00:58.756Z,99356.61
2018-06-21T16:03:27.842Z,99346.14
2018-06-21T16:05:56.898Z,99330.96
2018-06-21T16:08:26.420Z,99332.65
2018-06-21T16:10:55.447Z,99324.55
2018-06-21T16:13:24.519Z,99322.16
2018-06-21T16:15:53.534Z,99327.25
2018-06-21T16:18:22.860Z,99334.65
2018-06-21T16:20:51.963Z,99320.50
2018-06-21T16:23:21.036Z,99335.66
2018-06-21T16:25:50.023Z,99342.41
2018-06-21T16:28:18.953Z,99324.86
2018-06-21T16:30:47.995Z,99317.30
2018-06-21T16:33:17.043Z,99309.20
2018-06-21T16:35:46.154Z,99301.91
2018-06-21T16:38:15.226Z,99297.86
2018-06-21T16:40:44.455Z,99291.66
2018-06-21T16:43:13.585Z,99276.81
2018-06-21T16:45:42.550Z,99267.86
2018-06-21T16:48:11.275Z,99272.22
2018-06-21T16:50:40.241Z,99262.77
2018-06-21T16:53:09.143Z,99262.77
2018-06-21T16:55:38.023Z,99264.32
2018-06-21T16:58:07.214Z,99258.08
2018-06-21T17:00:36.258Z,99263.48
2018-06-21T17:03:05.478Z,99267.52
2018-06-21T17:05:34.637Z,99269.91
2018-06-21T17:08:03.685Z,99269.91
2018-06-21T17:10:32.608Z,99266.68
2018-06-21T17:13:01.520Z,99270.92
2018-06-21T17:15:30.474Z,99261.14
2018-06-21T17:17:59.573Z,99270.59
2018-06-21T17:20:28.708Z,99260.33
2018-06-21T17:22:57.637Z,99253.58
2018-06-21T17:25:26.875Z,99261.34
2018-06-21T17:27:55.857Z,99255.09
2018-06-21T17:30:25.009Z,99251.55
2018-06-21T17:32:54.123Z,99252.05
2018-06-21T17:35:23.322Z,99243.95
2018-06-21T17:37:52.452Z,99239.09
2018-06-21T17:40:21.384Z,99234.70
2018-06-21T17:42:50.426Z,99228.47
2018-06-21T17:45:19.478Z,99232.52
2018-06-21T17:47:48.637Z,99216.52
2018-06-21T17:50:17.748Z,99213.98
2018-06-21T17:52:46.662Z,99210.48
2018-06-21T17:55:16.075Z,99213.17
2018-06-21T17:57:45.140Z,99210.98
2018-06-21T18:00:14.216Z,99217.72
2018-06-21T18:02:43.314Z,99209.29
2018-06-21T18:05:12.105Z,99202.23
2018-06-21T18:07:41.350Z,99201.89
2018-06-21T18:10:10.439Z,99195.99
2018-06-21T18:12:39.647Z,99191.10
2018-06-21T18:15:08.733Z,99189.75
2018-06-21T18:17:37.845Z,99190.77
2018-06-21T18:20:07.016Z,99193.30
2018-06-21T18:22:36.226Z,99190.26
2018-06-21T18:25:05.401Z,99191.10
2018-06-21T18:27:34.515Z,99190.77
2018-06-21T18:30:03.669Z,99184.55
2018-06-21T18:32:32.733Z,99183.20
2018-06-21T18:35:01.725Z,99182.36
2018-06-21T18:37:30.636Z,99182.02
2018-06-21T18:39:59.786Z,99187.25
2018-06-21T18:42:28.808Z,99174.77
2018-06-21T18:44:57.902Z,99175.28
2018-06-21T18:47:27.698Z,99175.28
2018-06-21T18:49:56.692Z,99175.61
2018-06-21T18:52:25.788Z,99174.27
2018-06-21T18:54:54.956Z,99172.58
2018-06-21T18:57:24.016Z,99164.98
2018-06-21T18:59:53.152Z,99164.98
2018-06-21T19:02:22.112Z,99161.78
2018-06-21T19:04:51.238Z,99159.59
2018-06-21T19:07:25.443Z,99160.13
2018-06-21T19:09:59.542Z,99155.55
2018-06-21T19:12:28.626Z,99155.73
2018-06-21T19:14:57.758Z,99156.08
2018-06-21T19:17:26.786Z,99155.23
2018-06-21T19:19:55.932Z,99150.34
2018-06-21T19:22:25.051Z,99146.80
2018-06-21T19:24:53.994Z,99145.95
2018-06-21T19:27:23.062Z,99144.61
2018-06-21T19:29:52.071Z,99142.95
2018-06-21T19:32:21.078Z,99141.06
2018-06-21T19:34:50.174Z,99138.06
2018-06-21T19:37:19.099Z,99138.91
2018-06-21T19:39:48.277Z,99138.56
2018-06-21T19:42:17.305Z,99136.38
2018-06-21T19:44:46.334Z,99132.83
2018-06-21T19:47:15.406Z,99127.97
2018-06-21T19:49:44.375Z,99128.48
2018-06-21T19:52:14.094Z,99124.09
2018-06-21T19:54:43.316Z,99126.79
2018-06-21T19:57:12.350Z,99120.24
2018-06-21T19:59:41.351Z,99120.24
2018-06-21T20:02:11.235Z,99115.35
2018-06-21T20:04:40.262Z,99117.71
2018-06-21T20:07:09.619Z,99104.22
2018-06-21T20:09:38.639Z,99096.33
2018-06-21T20:12:07.777Z,99090.09
2018-06-21T20:14:36.738Z,99089.78
2018-06-21T20:17:05.953Z,99084.39
2018-06-21T20:19:40.459Z,99091.12
2018-06-21T20:22:09.447Z,99085.40
2018-06-21T20:24:39.073Z,99079.50
2018-06-21T20:27:08.132Z,99081.02
2018-06-21T20:29:37.247Z,99079.66
2018-06-21T20:32:06.517Z,99071.91
2018-06-21T20:34:35.458Z,99074.27
2018-06-21T20:37:09.165Z,99074.61
2018-06-21T20:39:38.106Z,99067.52
2018-06-21T20:42:07.150Z,99075.45
2018-06-21T20:44:36.231Z,99077.30
2018-06-21T20:47:05.232Z,99070.05
2018-06-21T20:49:34.285Z,99069.02
2018-06-21T20:52:03.690Z,99064.16
2018-06-21T20:54:32.632Z,99067.66
2018-06-21T20:57:02.049Z,99063.11
2018-06-21T20:59:31.258Z,99067.16
2018-06-21T21:02:00.278Z,99068.84
2018-06-21T21:05:09.664Z,99059.06
2018-06-21T21:07:39.265Z,99052.32
2018-06-21T21:10:11.446Z,99055.02
2018-06-21T21:12:40.792Z,99046.08
2018-06-21T21:15:10.863Z,99047.77
2018-06-21T21:17:39.830Z,99046.92
2018-06-21T21:20:09.465Z,99041.53
2018-06-21T21:22:39.244Z,99041.87
2018-06-21T21:25:08.331Z,99033.77
2018-06-21T21:27:37.377Z,99031.08
2018-06-21T21:30:07.691Z,99031.08
2018-06-21T21:32:36.695Z,99034.08
2018-06-21T21:35:05.758Z,99028.68
2018-06-21T21:37:34.976Z,99028.17
2018-06-21T21:40:05.302Z,99027.87
2018-06-21T21:42:35.590Z,99029.22
2018-06-21T21:45:04.621Z,99028.17
2018-06-21T21:47:33.678Z,99021.94
2018-06-21T21:50:02.528Z,99023.82
2018-06-21T21:52:31.682Z,99025.48
2018-06-21T21:55:01.231Z,99027.03
2018-06-21T21:57:30.314Z,99023.28
2018-06-21T21:59:59.255Z,99020.08
2018-06-21T22:02:28.408Z,99013.84
2018-06-21T22:04:57.363Z,99010.33
2018-06-21T22:07:26.177Z,99014.89
2018-06-21T22:09:55.231Z,99010.33
2018-06-21T22:12:24.285Z,99008.98
2018-06-21T22:14:53.530Z,99006.45
2018-06-21T22:17:22.440Z,99013.84
2018-06-21T22:19:51.668Z,99009.80
2018-06-21T22:22:20.622Z,99007.63
2018-06-21T22:24:49.622Z,99005.44
2018-06-21T22:27:18.588Z,99004.94
2018-06-21T22:29:47.444Z,99008.14
2018-06-21T22:32:16.328Z,99006.29
2018-06-21T22:34:45.235Z,98997.86
2018-06-21T22:37:14.119Z,99006.80
2018-06-21T22:39:43.018Z,98999.20
2018-06-21T22:42:12.012Z,98998.88
2018-06-21T22:44:41.191Z,99001.56
2018-06-21T22:47:10.164Z,98990.27
2018-06-21T22:49:39.214Z,99009.16
2018-06-21T22:52:08.607Z,98998.88
2018-06-21T22:54:37.583Z,98993.47
2018-06-21T22:57:06.475Z,98997.52
2018-06-21T22:59:35.471Z,99003.45
2018-06-21T23:02:04.326Z,98991.62
2018-06-21T23:04:33.355Z,98991.11
2018-06-21T23:07:02.474Z,98988.08
2018-06-21T23:09:31.434Z,98988.92
2018-06-21T23:12:00.543Z,98984.37
2018-06-21T23:14:29.600Z,98983.02
2018-06-21T23:16:58.941Z,98983.86
2018-06-21T23:19:29.677Z,98982.01
2018-06-21T23:21:59.084Z,98985.21
2018-06-21T23:24:28.392Z,98978.77
2018-06-21T23:26:57.375Z,98977.95
2018-06-21T23:29:26.269Z,98973.38
2018-06-21T23:31:55.257Z,98967.98
2018-06-21T23:34:24.184Z,98965.61
2018-06-21T23:36:53.059Z,98956.17
2018-06-21T23:39:22.240Z,98954.83
2018-06-21T23:41:51.201Z,98952.13
2018-06-21T23:44:20.232Z,98951.63
2018-06-21T23:46:49.184Z,98944.54
2018-06-21T23:49:18.121Z,98944.54
2018-06-21T23:51:47.125Z,98944.03
2018-06-21T23:54:16.094Z,98942.17
2018-06-21T23:56:45.500Z,98939.48
2018-06-21T23:59:14.503Z,98936.45
